createdAt,value
2018-07-24T00:00:03.083Z,79.22
2018-07-24T00:01:13.171Z,79.31
2018-07-24T00:02:23.262Z,79.12
2018-07-24T00:03:33.352Z,79.22
2018-07-24T00:04:43.404Z,79.5
2018-07-24T00:05:53.217Z,79.41
2018-07-24T00:07:03.027Z,79.5
2018-07-24T00:08:13.089Z,79.5
2018-07-24T00:09:22.932Z,79.41
2018-07-24T00:10:33.014Z,79.41
2018-07-24T00:11:42.311Z,79.22
2018-07-24T00:12:52.457Z,79.6
2018-07-24T00:14:02.268Z,79.31
2018-07-24T00:15:12.371Z,79.5
2018-07-24T00:16:21.921Z,79.5
2018-07-24T00:17:32.001Z,79.5
2018-07-24T00:18:42.096Z,79.41
2018-07-24T00:19:52.183Z,79.41
2018-07-24T00:21:02.269Z,79.12
2018-07-24T00:22:11.811Z,79.5
2018-07-24T00:23:21.911Z,79.41
2018-07-24T00:24:32.068Z,79.5
2018-07-24T00:25:42.143Z,79.7
2018-07-24T00:26:51.971Z,79.5
2018-07-24T00:28:02.054Z,79.12
2018-07-24T00:29:12.139Z,79.12
2018-07-24T00:30:22.203Z,79.5
2018-07-24T00:31:32.010Z,79.22
2018-07-24T00:32:42.111Z,79.5
2018-07-24T00:33:52.199Z,79.31
2018-07-24T00:35:02.032Z,79.6
2018-07-24T00:36:12.659Z,79.31
2018-07-24T00:37:22.481Z,79.12
2018-07-24T00:38:32.584Z,79.22
2018-07-24T00:39:42.662Z,79.22
2018-07-24T00:40:52.485Z,79.12
2018-07-24T00:42:02.294Z,79.6
2018-07-24T00:43:12.119Z,79.5
2018-07-24T00:44:22.194Z,79.22
2018-07-24T00:45:32.279Z,79.22
2018-07-24T00:46:42.366Z,79.5
2018-07-24T00:47:52.436Z,79.22
2018-07-24T00:49:02.514Z,79.22
2018-07-24T00:50:12.064Z,79.7
2018-07-24T00:51:21.364Z,79.5
2018-07-24T00:52:31.445Z,79.22
2018-07-24T00:53:41.528Z,79.6
2018-07-24T00:54:51.584Z,79.5
2018-07-24T00:56:01.663Z,79.5
2018-07-24T00:57:11.755Z,79.5
2018-07-24T00:58:21.852Z,79.22
2018-07-24T00:59:31.976Z,79.31
2018-07-24T01:00:41.795Z,79.6
2018-07-24T01:01:51.870Z,79.31
2018-07-24T01:03:01.698Z,78.92
2018-07-24T01:04:11.793Z,79.7
2018-07-24T01:05:21.887Z,79.47
2018-07-24T01:06:32.006Z,79.5
2018-07-24T01:07:42.098Z,79.12
2018-07-24T01:08:52.163Z,79.12
2018-07-24T01:10:01.980Z,79.37
2018-07-24T01:11:12.063Z,79.5
2018-07-24T01:12:22.177Z,79.5
2018-07-24T01:13:32.248Z,79.12
2018-07-24T01:14:42.335Z,79.22
2018-07-24T01:15:52.406Z,79.56
2018-07-24T01:17:02.218Z,79.31
2018-07-24T01:18:12.304Z,79.6
2018-07-24T01:19:22.378Z,79.31
2018-07-24T01:20:32.444Z,79.31
2018-07-24T01:21:42.533Z,79.41
2018-07-24T01:22:52.605Z,79.22
2018-07-24T01:24:02.417Z,79.6
2018-07-24T01:25:12.480Z,79.89
2018-07-24T01:26:22.549Z,79.8
2018-07-24T01:27:32.365Z,79.8
2018-07-24T01:28:42.487Z,79.37
2018-07-24T01:29:52.597Z,79.17
2018-07-24T01:31:02.146Z,79.6
2018-07-24T01:32:12.211Z,79.17
2018-07-24T01:33:22.289Z,79.85
2018-07-24T01:34:32.354Z,79.56
2018-07-24T01:35:42.426Z,79.66
2018-07-24T01:36:52.003Z,79.37
2018-07-24T01:38:02.095Z,79.66
2018-07-24T01:39:11.915Z,79.66
2018-07-24T01:40:21.715Z,79.47
2018-07-24T01:41:31.798Z,79.66
2018-07-24T01:42:41.882Z,79.66
2018-07-24T01:43:51.962Z,79.27
2018-07-24T01:45:02.031Z,79.27
2018-07-24T01:46:12.096Z,79.27
2018-07-24T01:47:22.179Z,79.47
2018-07-24T01:48:32.255Z,79.66
2018-07-24T01:49:42.380Z,79.47
2018-07-24T01:50:52.682Z,79.47
2018-07-24T01:52:02.513Z,79.27
2018-07-24T01:53:12.592Z,79.85
2018-07-24T01:54:22.404Z,79.27
2018-07-24T01:55:32.228Z,79.17
2018-07-24T01:56:42.035Z,79.75
2018-07-24T01:57:52.123Z,79.75
2018-07-24T01:59:01.683Z,79.47
2018-07-24T02:00:11.501Z,79.47
2018-07-24T02:01:21.293Z,79.66
2018-07-24T02:02:31.116Z,79.27
2018-07-24T02:03:41.193Z,79.56
2018-07-24T02:04:51.279Z,79.43
2018-07-24T02:06:01.362Z,79.75
2018-07-24T02:07:11.170Z,79.56
2018-07-24T02:08:21.249Z,79.75
2018-07-24T02:09:31.386Z,79.66
2018-07-24T02:10:41.453Z,79.66
2018-07-24T02:11:51.551Z,79.75
2018-07-24T02:13:01.640Z,79.72
2018-07-24T02:14:11.458Z,79.43
2018-07-24T02:15:21.566Z,79.62
2018-07-24T02:16:31.639Z,79.62
2018-07-24T02:17:41.718Z,79.43
2018-07-24T02:18:51.783Z,79.43
2018-07-24T02:20:01.868Z,79.52
2018-07-24T02:21:11.951Z,79.52
2018-07-24T02:22:22.040Z,79.24
2018-07-24T02:23:32.103Z,79.24
2018-07-24T02:24:42.164Z,79.52
2018-07-24T02:25:51.968Z,79.62
2018-07-24T02:27:02.069Z,79.72
2018-07-24T02:28:12.150Z,79.72
2018-07-24T02:29:22.244Z,79.52
2018-07-24T02:30:32.335Z,79.81
2018-07-24T02:31:42.204Z,79.47
2018-07-24T02:32:52.533Z,79.14
2018-07-24T02:34:02.635Z,79.43
2018-07-24T02:35:13.192Z,79.14
2018-07-24T02:36:23.270Z,79.62
2018-07-24T02:37:33.332Z,79.14
2018-07-24T02:38:43.409Z,79.43
2018-07-24T02:39:53.508Z,79.43
2018-07-24T02:41:03.573Z,79.33
2018-07-24T02:42:13.393Z,79.62
2018-07-24T02:43:23.477Z,79.81
2018-07-24T02:44:33.560Z,79.81
2018-07-24T02:45:43.390Z,79.62
2018-07-24T02:46:53.463Z,79.91
2018-07-24T02:48:03.283Z,79.91
2018-07-24T02:49:13.380Z,79.62
2018-07-24T02:50:23.206Z,79.81
2018-07-24T02:51:33.299Z,79.81
2018-07-24T02:52:43.129Z,79.52
2018-07-24T02:53:52.962Z,79.72
2018-07-24T02:55:03.043Z,79.81
2018-07-24T02:56:13.128Z,79.81
2018-07-24T02:57:23.211Z,79.62
2018-07-24T02:58:32.756Z,79.43
2018-07-24T02:59:42.839Z,79.43
2018-07-24T03:00:52.913Z,79.43
2018-07-24T03:02:02.738Z,79.72
2018-07-24T03:34:37.592Z,73.82
2018-07-24T03:35:47.385Z,74.01
2018-07-24T03:36:57.456Z,74.65
2018-07-24T03:38:07.538Z,75.45
2018-07-24T03:39:17.596Z,76.61
2018-07-24T03:40:27.178Z,76.42
2018-07-24T03:41:37.248Z,77.19
2018-07-24T03:42:47.337Z,77.48
2018-07-24T03:43:57.428Z,78.06
2018-07-24T03:45:07.584Z,77.76
2018-07-24T03:46:17.853Z,78.77
2018-07-24T03:47:27.669Z,78.48
2018-07-24T03:48:37.747Z,78.33
2018-07-24T03:49:47.599Z,78.42
2018-07-24T03:50:57.679Z,78.42
2018-07-24T03:52:07.760Z,78.56
2018-07-24T03:53:17.838Z,78.66
2018-07-24T03:54:27.910Z,78.08
2018-07-24T03:55:37.723Z,78.31
2018-07-24T03:56:47.804Z,78.02
2018-07-24T03:57:58.045Z,77.96
2018-07-24T03:59:08.389Z,78.06
2018-07-24T04:00:18.479Z,78.34
2018-07-24T04:01:28.555Z,78.15
2018-07-24T04:02:38.366Z,78.48
2018-07-24T04:03:48.197Z,78.67
2018-07-24T04:04:58.018Z,78.03
2018-07-24T04:06:07.833Z,77.84
2018-07-24T04:07:17.409Z,77.94
2018-07-24T04:08:27.240Z,78.17
2018-07-24T04:09:37.051Z,77.69
2018-07-24T04:10:47.124Z,77.69
2018-07-24T04:11:56.683Z,77.69
2018-07-24T04:13:06.765Z,78.08
2018-07-24T04:14:16.819Z,77.98
2018-07-24T04:15:26.943Z,77.73
2018-07-24T04:16:37.026Z,77.78
2018-07-24T04:17:46.830Z,77.82
2018-07-24T04:18:56.905Z,77.82
2018-07-24T04:20:06.997Z,78.11
2018-07-24T04:21:16.822Z,77.63
2018-07-24T04:22:26.902Z,77.63
2018-07-24T04:23:36.990Z,77.82
2018-07-24T04:24:47.117Z,77.82
2018-07-24T04:25:56.926Z,77.82
2018-07-24T04:27:07.000Z,77.92
2018-07-24T04:28:17.083Z,76.79
2018-07-24T04:29:27.158Z,74.93
2018-07-24T04:30:37.244Z,73.84
2018-07-24T04:31:47.610Z,73.27
2018-07-24T04:32:57.921Z,72.63
2018-07-24T04:34:08.014Z,71.72
2018-07-24T04:35:18.087Z,71.95
2018-07-24T04:36:28.184Z,71.7
2018-07-24T04:37:38.270Z,71.83
2018-07-24T04:38:48.076Z,71.44
2018-07-24T04:39:58.356Z,70.98
2018-07-24T04:41:08.678Z,71.18
2018-07-24T04:42:18.752Z,70.92
2018-07-24T04:43:28.881Z,71.06
2018-07-24T04:44:38.440Z,71.35
2018-07-24T04:45:48.526Z,71.29
2018-07-24T04:46:58.349Z,71.19
2018-07-24T04:48:08.420Z,71.78
2018-07-24T04:49:18.556Z,72.62
2018-07-24T04:50:28.113Z,73.5
2018-07-24T04:51:38.199Z,74.6
2018-07-24T04:52:47.762Z,75.34
2018-07-24T04:53:57.854Z,75.79
2018-07-24T04:55:07.977Z,75.75
2018-07-24T04:56:18.050Z,75.07
2018-07-24T04:57:27.857Z,74.13
2018-07-24T04:58:37.407Z,72.74
2018-07-24T04:59:47.204Z,71.55
2018-07-24T05:00:57.285Z,71.12
2018-07-24T05:02:07.373Z,70.87
2018-07-24T05:03:17.307Z,69.73
2018-07-24T05:04:27.678Z,70.25
2018-07-24T05:05:37.761Z,69.99
2018-07-24T05:06:47.838Z,69.79
2018-07-24T05:07:57.897Z,69.89
2018-07-24T05:09:07.756Z,69.93
2018-07-24T05:10:17.649Z,69.64
2018-07-24T05:11:27.894Z,69.64
2018-07-24T05:12:37.756Z,69.83
2018-07-24T05:13:47.071Z,69.93
2018-07-24T05:14:57.153Z,70.22
2018-07-24T05:16:07.203Z,70.06
2018-07-24T05:17:17.324Z,70.36
2018-07-24T05:18:26.609Z,69.76
2018-07-24T05:19:36.428Z,69.76
2018-07-24T05:20:46.542Z,69.76
2018-07-24T05:21:56.620Z,70.09
2018-07-24T05:23:06.447Z,70.39
2018-07-24T05:24:16.313Z,70.19
2018-07-24T05:25:26.410Z,70.19
2018-07-24T05:26:36.240Z,69.96
2018-07-24T05:27:46.329Z,70.06
2018-07-24T05:28:56.417Z,70.09
2018-07-24T05:30:06.502Z,70.06
2018-07-24T05:31:16.580Z,69.8
2018-07-24T05:32:26.674Z,70.19
2018-07-24T05:33:36.751Z,71.53
2018-07-24T05:34:46.830Z,72.74
2018-07-24T05:35:56.909Z,74.38
2018-07-24T05:37:07.011Z,74.9
2018-07-24T05:38:17.106Z,76.03
2018-07-24T05:39:27.191Z,76.64
2018-07-24T05:40:37.279Z,77
2018-07-24T05:41:47.363Z,77.15
2018-07-24T05:42:57.445Z,76.57
2018-07-24T05:44:07.506Z,76.53
2018-07-24T05:45:17.580Z,76.34
2018-07-24T05:46:27.705Z,75.36
2018-07-24T05:47:37.535Z,74.82
2018-07-24T05:48:47.622Z,74.37
2018-07-24T05:49:57.611Z,73.17
2018-07-24T05:51:07.720Z,72.03
2018-07-24T05:52:17.291Z,72
2018-07-24T05:53:27.440Z,71.71
2018-07-24T05:54:37.513Z,72.46
2018-07-24T05:55:47.638Z,72.46
2018-07-24T05:56:57.734Z,73.69
2018-07-24T05:58:07.811Z,73.73
2018-07-24T05:59:17.890Z,73.3
2018-07-24T06:00:27.720Z,73.05
2018-07-24T06:01:37.568Z,72.88
2018-07-24T06:02:47.647Z,72.39
2018-07-24T06:03:57.211Z,72.3
2018-07-24T06:05:07.288Z,70.97
2018-07-24T06:06:17.381Z,70.74
2018-07-24T06:07:27.262Z,69.89
2018-07-24T06:08:37.425Z,69.73
2018-07-24T06:09:47.506Z,69.27
2018-07-24T06:10:57.602Z,69.21
2018-07-24T06:12:07.684Z,69.24
2018-07-24T06:13:17.861Z,69.93
2018-07-24T06:14:28.092Z,69.64
2018-07-24T06:15:38.469Z,70.19
2018-07-24T06:16:48.381Z,70.59
2018-07-24T06:17:58.902Z,71.62
2018-07-24T06:19:08.703Z,73.22
2018-07-24T06:20:18.816Z,73.64
2018-07-24T06:21:28.904Z,74.29
2018-07-24T06:22:39.032Z,74.35
2018-07-24T06:23:49.142Z,75
2018-07-24T06:24:59.228Z,74.61
2018-07-24T06:26:09.050Z,74.96
2018-07-24T06:27:19.151Z,74.08
2018-07-24T06:28:29.236Z,74.12
2018-07-24T06:29:39.366Z,73.76
2018-07-24T06:30:49.473Z,73.27
2018-07-24T06:31:59.566Z,72.63
2018-07-24T06:33:09.664Z,72.63
2018-07-24T06:34:19.800Z,73.05
2018-07-24T06:35:29.359Z,72.56
2018-07-24T06:36:39.447Z,72.8
2018-07-24T06:37:49.537Z,71.85
2018-07-24T06:38:59.607Z,71.79
2018-07-24T06:40:09.695Z,70.55
2018-07-24T06:41:19.774Z,70.78
2018-07-24T06:42:29.588Z,71.17
2018-07-24T06:43:39.666Z,71.01
2018-07-24T06:44:49.774Z,70.81
2018-07-24T06:45:59.656Z,71.11
2018-07-24T06:47:09.495Z,70.88
2018-07-24T06:48:19.569Z,70.91
2018-07-24T06:49:29.671Z,70.62
2018-07-24T06:50:39.766Z,71.08
2018-07-24T06:51:50.095Z,71.08
2018-07-24T06:53:00.371Z,71.41
2018-07-24T06:54:10.485Z,71.17
2018-07-24T06:55:20.595Z,71.66
2018-07-24T06:56:30.788Z,72.25
2018-07-24T06:57:41.081Z,72.16
2018-07-24T06:58:51.201Z,73.19
2018-07-24T07:00:01.056Z,73.46
2018-07-24T07:01:10.915Z,73.81
2018-07-24T07:02:21.005Z,73.87
2018-07-24T07:03:31.237Z,74.07
2018-07-24T07:04:41.447Z,74.07
2018-07-24T07:05:51.272Z,74.03
2018-07-24T07:07:01.363Z,74.62
2018-07-24T07:08:11.463Z,75.07
2018-07-24T07:09:21.548Z,74.29
2018-07-24T07:10:31.642Z,74.93
2018-07-24T07:11:41.746Z,74.8
2018-07-24T07:12:51.835Z,74.71
2018-07-24T07:14:01.704Z,75.29
2018-07-24T07:15:12.390Z,75.2
2018-07-24T07:16:22.609Z,75.05
2018-07-24T07:17:32.823Z,75.45
2018-07-24T07:18:42.667Z,75.05
2018-07-24T07:19:52.495Z,75.35
2018-07-24T07:21:02.579Z,75.35
2018-07-24T07:22:12.669Z,74.77
2018-07-24T07:23:22.755Z,74.87
2018-07-24T07:24:33.012Z,74.67
2018-07-24T07:25:43.084Z,74.63
2018-07-24T07:26:53.173Z,74.83
2018-07-24T07:28:02.769Z,74.57
2018-07-24T07:29:13.029Z,74.48
2018-07-24T07:30:23.345Z,74.67
2018-07-24T07:31:33.438Z,74.77
2018-07-24T07:32:43.669Z,74.96
2018-07-24T07:33:53.751Z,74.8
2018-07-24T07:35:03.577Z,74.8
2018-07-24T07:36:13.652Z,74.96
2018-07-24T07:37:23.746Z,74.87
2018-07-24T07:38:33.580Z,74.77
2018-07-24T07:39:43.651Z,74.77
2018-07-24T07:40:53.732Z,74.96
2018-07-24T07:42:03.812Z,74.96
2018-07-24T07:43:13.917Z,74.77
2018-07-24T07:44:24.072Z,74.96
2018-07-24T07:45:33.891Z,74.77
2018-07-24T07:46:43.713Z,74.9
2018-07-24T07:47:53.785Z,74.8
2018-07-24T07:49:03.359Z,74.9
2018-07-24T07:50:13.448Z,75.1
2018-07-24T07:51:23.374Z,74.8
2018-07-24T07:52:33.778Z,74.8
2018-07-24T07:53:44.169Z,75.1
2018-07-24T07:54:53.984Z,75.1
2018-07-24T07:56:04.084Z,75.1
2018-07-24T07:57:13.909Z,75.2
2018-07-24T07:58:23.986Z,75.1
2018-07-24T07:59:33.884Z,75.2
2018-07-24T08:00:43.984Z,74.8
2018-07-24T08:01:53.823Z,74.84
2018-07-24T08:03:03.637Z,75.04
2018-07-24T08:04:13.633Z,75.2
2018-07-24T08:05:23.907Z,75.1
2018-07-24T08:06:33.987Z,74.71
2018-07-24T08:07:44.072Z,74.71
2018-07-24T08:08:53.906Z,74.71
2018-07-24T08:10:03.995Z,75.39
2018-07-24T08:11:14.103Z,75.1
2018-07-24T08:12:24.288Z,74.61
2018-07-24T08:13:34.550Z,74.9
2018-07-24T08:14:44.630Z,74.71
2018-07-24T08:15:54.452Z,74.9
2018-07-24T08:17:04.319Z,74.71
2018-07-24T08:18:14.396Z,74.61
2018-07-24T08:19:24.226Z,74.51
2018-07-24T08:20:34.305Z,74.54
2018-07-24T08:21:44.129Z,74.84
2018-07-24T08:22:54.215Z,75.04
2018-07-24T08:24:04.319Z,74.84
2018-07-24T08:25:14.397Z,75.04
2018-07-24T08:26:24.467Z,75.27
2018-07-24T08:27:34.584Z,75.27
2018-07-24T08:28:44.735Z,75.17
2018-07-24T08:29:54.829Z,75.07
2018-07-24T08:31:04.924Z,75.17
2018-07-24T08:32:14.771Z,74.81
2018-07-24T08:33:24.589Z,74.81
2018-07-24T08:34:34.878Z,75.01
2018-07-24T08:35:45.052Z,75.21
2018-07-24T08:36:55.123Z,74.87
2018-07-24T08:38:05.204Z,74.97
2018-07-24T08:39:14.779Z,74.91
2018-07-24T08:40:24.867Z,74.91
2018-07-24T08:41:34.711Z,75.11
2018-07-24T08:42:44.296Z,75.31
2018-07-24T08:43:54.384Z,75.21
2018-07-24T08:45:04.486Z,74.71
2018-07-24T08:46:14.331Z,74.81
2018-07-24T08:47:24.401Z,75.01
2018-07-24T08:48:34.202Z,74.81
2018-07-24T08:49:44.038Z,75.01
2018-07-24T08:50:53.852Z,74.77
2018-07-24T08:52:03.984Z,74.71
2018-07-24T08:53:14.269Z,75.01
2018-07-24T08:54:26.107Z,74.91
2018-07-24T08:55:37.315Z,75.37
2018-07-24T08:56:49.437Z,75.5
2018-07-24T08:57:59.579Z,75.6
2018-07-24T08:59:09.670Z,75.31
2018-07-24T09:00:19.755Z,75.4
2018-07-24T09:01:29.846Z,75.4
2018-07-24T09:02:39.972Z,75.4
2018-07-24T09:03:50.156Z,75.5
2018-07-24T09:05:00.399Z,75.6
2018-07-24T09:06:10.491Z,74.91
2018-07-24T09:07:20.590Z,75.5
2018-07-24T09:08:30.676Z,75.4
2018-07-24T09:09:40.785Z,75.4
2018-07-24T09:10:50.864Z,75.5
2018-07-24T09:12:00.935Z,75.6
2018-07-24T09:13:11.014Z,75.6
2018-07-24T09:14:21.105Z,75.6
2018-07-24T09:15:31.033Z,75.6
2018-07-24T09:16:41.127Z,75.5
2018-07-24T09:17:51.220Z,75.21
2018-07-24T09:19:01.043Z,75.4
2018-07-24T09:20:11.141Z,75.6
2018-07-24T09:21:20.956Z,75.31
2018-07-24T09:22:31.062Z,75.5
2018-07-24T09:23:41.159Z,75.5
2018-07-24T09:24:51.265Z,75.31
2018-07-24T09:26:01.090Z,75.34
2018-07-24T09:27:10.694Z,75.34
2018-07-24T09:28:20.502Z,75.44
2018-07-24T09:29:30.593Z,74.95
2018-07-24T09:30:40.689Z,75.04
2018-07-24T09:31:50.777Z,74.65
2018-07-24T09:33:00.856Z,74.75
2018-07-24T09:34:10.951Z,74.75
2018-07-24T09:35:21.041Z,74.95
2018-07-24T09:36:31.144Z,75.57
2018-07-24T09:37:41.238Z,74.98
2018-07-24T09:38:51.303Z,74.98
2018-07-24T09:40:01.374Z,75.48
2018-07-24T09:41:11.478Z,74.98
2018-07-24T09:42:21.115Z,75.08
2018-07-24T09:43:30.675Z,74.79
2018-07-24T09:44:40.778Z,74.92
2018-07-24T09:45:50.879Z,74.92
2018-07-24T09:47:01.139Z,74.73
2018-07-24T09:48:10.704Z,74.92
2018-07-24T09:49:20.791Z,75.02
2018-07-24T09:50:30.971Z,74.82
2018-07-24T09:51:41.359Z,74.82
2018-07-24T09:52:51.446Z,75.32
2018-07-24T09:54:01.283Z,74.92
2018-07-24T09:55:11.362Z,75.32
2018-07-24T09:56:21.292Z,74.82
2018-07-24T09:57:31.619Z,74.92
2018-07-24T09:58:41.697Z,75.35
2018-07-24T09:59:51.539Z,75.42
2018-07-24T10:01:01.622Z,75.05
2018-07-24T10:02:11.767Z,75.05
2018-07-24T10:03:21.857Z,75.26
2018-07-24T10:04:31.943Z,74.27
2018-07-24T10:05:41.786Z,74.6
2018-07-24T10:06:51.875Z,74.6
2018-07-24T10:08:01.949Z,74.9
2018-07-24T10:09:12.036Z,75.09
2018-07-24T10:10:21.866Z,74.44
2018-07-24T10:11:32.005Z,74.74
2018-07-24T10:12:42.235Z,74.48
2018-07-24T10:13:52.378Z,75.33
2018-07-24T10:15:02.495Z,75.59
2018-07-24T10:16:12.594Z,75.78
2018-07-24T10:17:22.661Z,75.29
2018-07-24T10:18:32.493Z,74.74
2018-07-24T10:19:42.605Z,75.43
2018-07-24T10:20:52.703Z,75.13
2018-07-24T10:22:02.539Z,75.03
2018-07-24T10:23:12.729Z,74.48
2018-07-24T10:24:22.931Z,74.91
2018-07-24T10:25:33.388Z,75.37
2018-07-24T10:26:43.718Z,75.03
2018-07-24T10:27:53.563Z,75.23
2018-07-24T10:29:03.656Z,74.84
2018-07-24T10:30:13.753Z,74.77
2018-07-24T10:31:23.733Z,73.96
2018-07-24T10:32:33.563Z,73.21
2018-07-24T10:33:43.643Z,73.05
2018-07-24T10:34:53.469Z,73.38
2018-07-24T10:36:03.542Z,73.38
2018-07-24T10:37:13.637Z,73.88
2018-07-24T10:38:23.468Z,74.13
2018-07-24T10:39:33.317Z,74.33
2018-07-24T10:40:43.128Z,74.63
2018-07-24T10:41:53.238Z,74.73
2018-07-24T10:43:03.368Z,74.79
2018-07-24T10:44:13.941Z,74.88
2018-07-24T10:45:24.058Z,75.24
2018-07-24T10:46:34.139Z,75.79
2018-07-24T10:47:44.227Z,76.34
2018-07-24T10:48:54.065Z,76.25
2018-07-24T10:50:03.897Z,76.01
2018-07-24T10:51:13.719Z,76.4
2018-07-24T10:52:23.551Z,75.07
2018-07-24T10:53:33.117Z,75.1
2018-07-24T10:54:43.201Z,74.75
2018-07-24T10:55:53.034Z,74.59
2018-07-24T10:57:03.125Z,74.1
2018-07-24T10:58:13.199Z,74.98
2018-07-24T10:59:23.027Z,75.27
2018-07-24T11:00:33.134Z,75.44
2018-07-24T11:01:43.223Z,75.2
2018-07-24T11:02:53.329Z,75.5
2018-07-24T11:04:03.420Z,74.95
2018-07-24T11:05:13.573Z,74.59
2018-07-24T11:06:24.935Z,74.59
2018-07-24T11:07:34.488Z,74.23
2018-07-24T11:08:44.575Z,73.28
2018-07-24T11:09:54.385Z,73.81
2018-07-24T11:11:04.383Z,74.01
2018-07-24T11:12:14.354Z,74.11
2018-07-24T11:13:24.437Z,73.88
2018-07-24T11:14:34.539Z,73.12
2018-07-24T11:15:44.368Z,73.25
2018-07-24T11:16:54.206Z,73.35
2018-07-24T11:18:04.333Z,73.16
2018-07-24T11:19:14.221Z,74.15
2018-07-24T11:20:24.049Z,74.3
2018-07-24T11:21:34.129Z,74.46
2018-07-24T11:22:44.749Z,75.21
2018-07-24T11:23:55.326Z,75.08
2018-07-24T11:25:05.442Z,75.83
2018-07-24T11:26:15.283Z,75.83
2018-07-24T11:27:25.473Z,75.3
2018-07-24T11:28:35.966Z,75.2
2018-07-24T11:29:46.121Z,74.75
2018-07-24T11:30:55.954Z,74.13
2018-07-24T11:32:06.067Z,74.43
2018-07-24T11:33:15.967Z,72.99
2018-07-24T11:34:26.307Z,73.35
2018-07-24T11:35:36.607Z,73.46
2018-07-24T11:36:47.358Z,74.15
2018-07-24T11:37:57.494Z,74.34
2018-07-24T11:39:07.624Z,74.9
2018-07-24T11:40:17.707Z,74.76
2018-07-24T11:41:27.267Z,75.31
2018-07-24T11:42:37.085Z,75.87
2018-07-24T11:43:46.911Z,76.42
2018-07-24T11:44:56.462Z,75.44
2018-07-24T11:46:06.301Z,75.54
2018-07-24T11:47:16.438Z,75.4
2018-07-24T11:48:26.280Z,75.44
2018-07-24T11:49:36.355Z,75.14
2018-07-24T11:50:45.922Z,74.49
2018-07-24T11:51:56.203Z,73.94
2018-07-24T11:53:06.354Z,73.42
2018-07-24T11:54:16.470Z,72.96
2018-07-24T11:55:26.558Z,72.31
2018-07-24T11:56:36.630Z,72.34
2018-07-24T11:57:46.937Z,71.78
2018-07-24T11:58:57.085Z,72.47
2018-07-24T12:00:06.914Z,72.38
2018-07-24T12:01:16.996Z,72.58
2018-07-24T12:02:27.068Z,72.87
2018-07-24T12:03:37.230Z,72.41
2018-07-24T12:04:47.337Z,72.91
2018-07-24T12:05:57.728Z,73.4
2018-07-24T12:07:07.823Z,74.21
2018-07-24T12:08:17.913Z,75.66
2018-07-24T12:09:28.007Z,75.19
2018-07-24T12:10:38.330Z,76
2018-07-24T12:11:48.438Z,76.35
2018-07-24T12:12:58.564Z,77.01
2018-07-24T12:14:08.136Z,77.17
2018-07-24T12:15:18.386Z,76.93
2018-07-24T12:16:28.467Z,76.93
2018-07-24T12:17:38.371Z,77.09
2018-07-24T12:18:48.446Z,76.31
2018-07-24T12:19:58.262Z,75.95
2018-07-24T12:21:08.364Z,75.54
2018-07-24T12:22:18.495Z,75.27
2018-07-24T12:23:28.851Z,75.41
2018-07-24T12:24:38.956Z,74.79
2018-07-24T12:25:48.773Z,74.52
2018-07-24T12:26:58.926Z,74.07
2018-07-24T12:28:09.207Z,73.61
2018-07-24T12:29:19.287Z,73.06
2018-07-24T12:30:29.137Z,73.75
2018-07-24T12:31:39.223Z,74.54
2018-07-24T12:32:49.090Z,74.99
2018-07-24T12:33:59.201Z,75.25
2018-07-24T12:35:09.304Z,75.35
2018-07-24T12:36:18.877Z,74.66
2018-07-24T12:37:28.970Z,74.96
2018-07-24T12:38:39.043Z,75.05
2018-07-24T12:39:49.131Z,74.86
2018-07-24T12:40:58.956Z,74.76
2018-07-24T12:42:09.189Z,74.69
2018-07-24T12:43:19.379Z,74.5
2018-07-24T12:44:29.585Z,74.66
2018-07-24T12:45:39.684Z,75.29
2018-07-24T12:46:49.570Z,74.69
2018-07-24T12:47:59.660Z,74.8
2018-07-24T12:49:09.743Z,75.09
2018-07-24T12:50:19.915Z,74.44
2018-07-24T12:51:30.026Z,74.15
2018-07-24T12:52:40.094Z,74.44
2018-07-24T12:53:49.939Z,74.24
2018-07-24T12:55:00.043Z,74.34
2018-07-24T12:56:10.138Z,74.48
2018-07-24T12:57:20.219Z,74.18
2018-07-24T12:58:30.308Z,74.38
2018-07-24T12:59:40.126Z,74.48
2018-07-24T13:00:49.968Z,74.18
2018-07-24T13:02:00.098Z,74.28
2018-07-24T13:03:09.928Z,74.77
2018-07-24T13:04:20.014Z,73.88
2018-07-24T13:05:30.165Z,74.41
2018-07-24T13:06:40.271Z,74.15
2018-07-24T13:07:50.156Z,74.21
2018-07-24T13:09:00.266Z,74.51
2018-07-24T13:10:10.476Z,74.8
2018-07-24T13:11:20.733Z,74.31
2018-07-24T13:12:30.875Z,74.51
2018-07-24T13:13:40.974Z,74.48
2018-07-24T13:14:51.073Z,75.2
2018-07-24T13:16:01.163Z,74.48
2018-07-24T13:17:11.319Z,74.41
2018-07-24T13:18:21.157Z,73.96
2018-07-24T13:19:31.103Z,73.75
2018-07-24T13:20:41.482Z,73.6
2018-07-24T13:21:51.573Z,73.69
2018-07-24T13:23:01.400Z,73.63
2018-07-24T13:24:10.980Z,74.19
2018-07-24T13:25:21.092Z,74.68
2018-07-24T13:26:31.182Z,75.63
2018-07-24T13:27:41.271Z,75.16
2018-07-24T13:28:51.413Z,75.07
2018-07-24T13:30:01.515Z,74.87
2018-07-24T13:31:11.390Z,75.72
2018-07-24T13:32:21.213Z,75.42
2018-07-24T13:33:31.052Z,75.42
2018-07-24T13:34:40.869Z,74.83
2018-07-24T13:35:50.171Z,74.77
2018-07-24T13:37:00.348Z,74.11
2018-07-24T13:38:10.440Z,74.15
2018-07-24T13:39:20.282Z,73.79
2018-07-24T13:40:30.384Z,73.69
2018-07-24T13:41:40.207Z,73.33
2018-07-24T13:42:50.288Z,73.54
2018-07-24T13:44:00.377Z,74.02
2018-07-24T13:45:10.509Z,74.55
2018-07-24T13:46:20.616Z,75.7
2018-07-24T13:47:30.715Z,75.16
2018-07-24T13:48:40.801Z,75.62
2018-07-24T13:49:50.868Z,74.83
2018-07-24T13:51:00.988Z,75.52
2018-07-24T13:52:11.307Z,76.07
2018-07-24T13:53:21.507Z,76.17
2018-07-24T13:54:31.591Z,75.84
2018-07-24T13:55:41.679Z,76.23
2018-07-24T13:56:51.302Z,75.94
2018-07-24T13:58:01.392Z,75.05
2018-07-24T13:59:11.518Z,74.83
2018-07-24T14:00:21.609Z,74.93
2018-07-24T14:01:31.681Z,74.08
2018-07-24T14:02:41.766Z,74.8
2018-07-24T14:03:51.858Z,74.97
2018-07-24T14:05:01.965Z,74.77
2018-07-24T14:06:12.119Z,74.11
2018-07-24T14:07:22.203Z,73.96
2018-07-24T14:08:32.469Z,74.15
2018-07-24T14:09:42.633Z,73.6
2018-07-24T14:10:52.488Z,74.19
2018-07-24T14:12:02.337Z,74.55
2018-07-24T14:13:11.913Z,75
2018-07-24T14:14:22.067Z,74.8
2018-07-24T14:15:32.161Z,75.4
2018-07-24T14:16:41.732Z,75.46
2018-07-24T14:17:51.584Z,75.16
2018-07-24T14:19:01.683Z,75.16
2018-07-24T14:20:11.753Z,75.26
2018-07-24T14:21:21.577Z,75.42
2018-07-24T14:22:31.707Z,75.23
2018-07-24T14:23:41.946Z,75.98
2018-07-24T14:24:52.083Z,75.88
2018-07-24T14:26:02.159Z,75.98
2018-07-24T14:27:12.245Z,75.84
2018-07-24T14:28:22.061Z,75.74
2018-07-24T14:29:31.933Z,75.9
2018-07-24T14:30:41.754Z,75.31
2018-07-24T14:31:51.848Z,75.84
2018-07-24T14:33:01.933Z,75.71
2018-07-24T14:34:11.762Z,75.55
2018-07-24T14:35:21.829Z,75.55
2018-07-24T14:36:31.917Z,74.96
2018-07-24T14:37:42.011Z,75.25
2018-07-24T14:38:51.857Z,75.15
2018-07-24T14:40:01.947Z,74.96
2018-07-24T14:41:11.801Z,74.56
2018-07-24T14:42:21.880Z,75.68
2018-07-24T14:43:31.708Z,74.8
2018-07-24T14:44:41.795Z,75.32
2018-07-24T14:45:51.901Z,75.48
2018-07-24T14:47:01.971Z,75.42
2018-07-24T14:48:12.053Z,75.62
2018-07-24T14:49:22.141Z,75.42
2018-07-24T14:50:32.232Z,75.42
2018-07-24T14:51:42.323Z,75.42
2018-07-24T14:52:52.484Z,75.23
2018-07-24T14:54:02.564Z,75.13
2018-07-24T14:55:12.632Z,74.83
2018-07-24T14:56:22.732Z,74.73
2018-07-24T14:57:32.549Z,75.42
2018-07-24T14:58:42.850Z,75.13
2018-07-24T14:59:53.344Z,75.03
2018-07-24T15:01:03.435Z,74.93
2018-07-24T15:02:13.527Z,74.93
2018-07-24T15:03:23.372Z,75.52
2018-07-24T15:04:33.481Z,75.23
2018-07-24T15:05:43.745Z,76.14
2018-07-24T15:06:53.571Z,76.29
2018-07-24T15:08:03.684Z,76.1
2018-07-24T15:09:13.774Z,76.1
2018-07-24T15:10:23.599Z,76.39
2018-07-24T15:11:33.705Z,76
2018-07-24T15:12:43.879Z,76.2
2018-07-24T15:13:53.968Z,76.5
2018-07-24T15:15:04.151Z,75.9
2018-07-24T15:16:14.027Z,75.61
2018-07-24T15:17:24.144Z,75.74
2018-07-24T15:18:33.965Z,75.81
2018-07-24T15:19:43.824Z,75.35
2018-07-24T15:20:53.654Z,75.35
2018-07-24T15:22:03.550Z,75.55
2018-07-24T15:23:13.635Z,75.25
2018-07-24T15:24:23.460Z,75.74
2018-07-24T15:25:33.289Z,75.25
2018-07-24T15:26:43.388Z,75.38
2018-07-24T15:27:53.208Z,75.38
2018-07-24T15:29:03.319Z,75.38
2018-07-24T15:30:13.427Z,75.29
2018-07-24T15:31:22.987Z,75.19
2018-07-24T15:32:33.086Z,75.48
2018-07-24T15:33:42.915Z,75.48
2018-07-24T15:34:53.295Z,75.19
2018-07-24T15:36:03.325Z,75.29
2018-07-24T15:37:13.424Z,75.19